Time;durP1;ratioP1;P1;durP2;ratioP2;P2;SDS_P1;SDS_P2;PMS_P1;PMS_P2;Temp;Humidity;BMP_temperature;BMP_pressure;BME280_temperature;BME280_humidity;BME280_pressure;Samples;Min_cycle;Max_cycle;Signal;HPM_P1;HPM_P2
2021/04/20 00:02:40;;;;;;;20.65;14.95;;;;;;;7.57;73.71;100242.23;1793452;80;21917;-59
2021/04/20 00:05:47;;;;;;;22.82;15.98;;;;;;;7.49;74.05;100246.26;1793444;79;21348;-60
2021/04/20 00:08:54;;;;;;;22.58;15.95;;;;;;;7.45;74.60;100232.59;1793341;79;21189;-59
2021/04/20 00:12:01;;;;;;;23.22;15.65;;;;;;;7.43;74.98;100236.01;1793531;80;21205;-60
2021/04/20 00:15:08;;;;;;;25.88;15.65;;;;;;;7.42;75.21;100242.45;1793470;79;21817;-60
2021/04/20 00:18:14;;;;;;;22.17;15.18;;;;;;;7.39;75.31;100235.96;1793487;80;21205;-60
2021/04/20 00:21:21;;;;;;;21.80;15.72;;;;;;;7.35;75.50;100229.64;1793559;80;21347;-59
2021/04/20 00:24:28;;;;;;;20.70;15.50;;;;;;;7.27;75.75;100222.77;1777201;79;21354;-61
2021/04/20 00:27:34;;;;;;;20.00;15.18;;;;;;;7.23;76.03;100230.92;1793545;80;21418;-61
2021/04/20 00:30:40;;;;;;;19.65;14.90;;;;;;;7.19;76.06;100227.66;1793413;79;21410;-60
2021/04/20 00:33:47;;;;;;;21.35;15.32;;;;;;;7.16;76.02;100217.58;1793502;80;21260;-60
2021/04/20 00:36:52;;;;;;;21.25;16.10;;;;;;;7.14;76.19;100227.27;1793482;80;21383;-60
2021/04/20 00:39:57;;;;;;;23.02;16.62;;;;;;;7.11;76.37;100220.78;1793393;79;21363;-60
2021/04/20 00:43:04;;;;;;;22.22;17.25;;;;;;;7.10;76.59;100217.69;1796637;79;21465;-59
2021/04/20 00:46:09;;;;;;;22.82;17.07;;;;;;;7.06;76.71;100210.87;1803785;79;21267;-60
2021/04/20 00:49:14;;;;;;;21.97;16.00;;;;;;;7.05;76.86;100206.95;1803705;79;21879;-60
2021/04/20 00:52:21;;;;;;;21.20;16.27;;;;;;;6.99;76.97;100199.42;1804159;79;21197;-60
2021/04/20 00:55:27;;;;;;;24.90;18.52;;;;;;;6.92;77.19;100195.60;1804160;79;21358;-60
2021/04/20 00:58:33;;;;;;;25.82;17.65;;;;;;;6.89;77.37;100196.78;1804219;79;21327;-60
2021/04/20 01:01:41;;;;;;;25.52;17.12;;;;;;;6.86;77.60;100191.66;1804193;79;21330;-60
2021/04/20 01:04:47;;;;;;;26.45;18.25;;;;;;;6.84;77.77;100198.25;1804226;79;21365;-59
2021/04/20 01:07:55;;;;;;;23.30;17.12;;;;;;;6.84;77.90;100192.31;1804194;79;21327;-60
2021/04/20 01:11:03;;;;;;;26.15;18.15;;;;;;;6.83;78.00;100194.70;1804133;79;21351;-60
2021/04/20 01:14:11;;;;;;;25.02;17.70;;;;;;;6.82;78.11;100190.25;1804233;79;21797;-60
2021/04/20 01:17:17;;;;;;;24.65;18.17;;;;;;;6.83;78.19;100187.89;1804109;79;21177;-60
2021/04/20 01:20:25;;;;;;;23.45;17.77;;;;;;;6.83;78.23;100185.17;1804246;79;21197;-60
2021/04/20 01:24:05;;;;;;;23.10;16.73;;;;;;;6.80;78.23;100184.62;1804329;79;21307;-60
2021/04/20 01:27:12;;;;;;;21.10;16.20;;;;;;;6.77;78.21;100181.70;1803776;79;21669;-60
2021/04/20 01:30:17;;;;;;;27.00;17.37;;;;;;;6.75;78.01;100185.59;1803671;79;21366;-60
2021/04/20 01:33:22;;;;;;;24.65;16.90;;;;;;;6.70;78.00;100184.71;1804128;79;21216;-61
2021/04/20 01:36:29;;;;;;;23.25;18.20;;;;;;;6.68;78.10;100184.00;1807102;79;21433;-61
2021/04/20 01:39:35;;;;;;;25.02;18.27;;;;;;;6.63;78.15;100178.17;1804245;79;21355;-60
2021/04/20 01:42:42;;;;;;;24.85;17.48;;;;;;;6.53;78.19;100172.48;1803795;79;22161;-61
2021/04/20 01:45:49;;;;;;;23.87;16.12;;;;;;;6.41;78.42;100170.98;1771010;79;21240;-60
2021/04/20 01:48:57;;;;;;;25.95;17.95;;;;;;;6.34;78.62;100167.18;1771094;79;21357;-59
2021/04/20 01:52:03;;;;;;;26.40;18.07;;;;;;;6.23;78.76;100157.89;1770779;80;21335;-60
2021/04/20 01:55:08;;;;;;;25.17;17.70;;;;;;;6.15;79.08;100157.80;1770986;79;21312;-60
2021/04/20 01:58:15;;;;;;;23.98;17.62;;;;;;;6.05;79.22;100152.43;1771086;80;21248;-61
2021/04/20 02:01:23;;;;;;;25.20;17.25;;;;;;;5.99;79.57;100147.09;1770660;80;21347;-60
2021/04/20 02:04:28;;;;;;;25.48;18.70;;;;;;;5.99;79.71;100145.73;1771189;79;21247;-59
2021/04/20 02:07:33;;;;;;;22.82;16.62;;;;;;;6.00;79.70;100142.52;1771595;80;21302;-59
2021/04/20 02:10:39;;;;;;;24.75;17.92;;;;;;;6.01;79.72;100143.73;1770796;79;21298;-59
2021/04/20 02:13:44;;;;;;;24.05;18.20;;;;;;;5.97;79.75;100131.96;1770805;80;21564;-60
2021/04/20 02:16:50;;;;;;;26.87;19.50;;;;;;;5.96;79.95;100128.91;1771054;80;21240;-60
2021/04/20 02:19:55;;;;;;;25.65;18.77;;;;;;;5.92;80.08;100117.98;1771047;79;21236;-61
2021/04/20 02:23:01;;;;;;;26.05;18.37;;;;;;;5.87;80.23;100115.72;1770781;80;21271;-60
2021/04/20 02:26:16;;;;;;;26.87;19.07;;;;;;;5.85;80.46;100111.47;1771333;79;21220;-59
2021/04/20 02:29:22;;;;;;;26.75;19.20;;;;;;;5.82;80.62;100111.74;1770707;79;21272;-59
2021/04/20 02:32:28;;;;;;;28.17;19.98;;;;;;;5.79;80.75;100110.16;1770958;80;21188;-59
2021/04/20 02:35:35;;;;;;;28.98;18.40;;;;;;;5.77;80.93;100101.83;1770701;79;21805;-59
2021/04/20 02:38:40;;;;;;;25.95;18.87;;;;;;;5.80;81.05;100105.59;1770303;80;21205;-60
2021/04/20 02:41:54;;;;;;;27.75;18.65;;;;;;;5.83;81.07;100113.47;1770355;80;21189;-61
2021/04/20 02:44:59;;;;;;;26.82;17.95;;;;;;;5.85;81.07;100123.69;1777249;79;21381;-61
2021/04/20 02:48:04;;;;;;;29.02;19.65;;;;;;;5.88;80.91;100122.02;1804083;79;21311;-62
2021/04/20 02:51:08;;;;;;;28.57;19.42;;;;;;;5.87;80.71;100121.16;1804245;79;21212;-61
2021/04/20 02:54:18;;;;;;;26.00;19.25;;;;;;;5.88;80.70;100114.70;1803856;79;21709;-61
2021/04/20 02:57:23;;;;;;;26.55;19.12;;;;;;;5.90;80.66;100118.63;1803826;79;21367;-61
2021/04/20 03:00:32;;;;;;;26.10;18.98;;;;;;;5.85;80.57;100112.83;1804098;79;21429;-60
2021/04/20 03:03:37;;;;;;;28.00;19.55;;;;;;;5.77;80.63;100110.81;1804102;79;21220;-61
2021/04/20 03:06:43;;;;;;;26.25;19.23;;;;;;;5.77;80.75;100115.41;1807139;79;21201;-59
2021/04/20 03:09:49;;;;;;;28.57;20.08;;;;;;;5.74;80.82;100110.28;1807334;78;21339;-59
2021/04/20 03:12:55;;;;;;;26.33;19.05;;;;;;;5.76;81.05;100108.25;1804178;79;21335;-59
2021/04/20 03:16:02;;;;;;;29.52;19.12;;;;;;;5.80;81.14;100113.75;1804076;79;22220;-59
2021/04/20 03:19:11;;;;;;;27.30;19.10;;;;;;;5.81;81.13;100103.22;1804194;79;21228;-59
2021/04/20 03:22:16;;;;;;;26.75;19.02;;;;;;;5.84;81.15;100101.59;1804282;79;21328;-60
2021/04/20 03:25:30;;;;;;;23.38;17.60;;;;;;;5.88;81.26;100101.65;1806626;78;21405;-60
2021/04/20 03:28:34;;;;;;;24.12;18.10;;;;;;;5.91;81.28;100090.48;1803969;79;21327;-61
2021/04/20 03:31:45;;;;;;;25.05;18.07;;;;;;;5.96;81.16;100091.70;1804172;79;21394;-60
2021/04/20 03:35:10;;;;;;;24.52;18.57;;;;;;;5.99;81.06;100090.56;1804084;79;21201;-60
2021/04/20 03:38:37;;;;;;;27.90;18.32;;;;;;;5.98;80.93;100091.55;1804066;79;21403;-60
2021/04/20 03:42:09;;;;;;;24.25;17.48;;;;;;;5.97;80.97;100094.80;1804095;79;21428;-60
2021/04/20 03:45:25;;;;;;;25.05;18.52;;;;;;;6.01;81.10;100093.95;1803901;79;21232;-59
2021/04/20 03:48:39;;;;;;;26.48;18.35;;;;;;;6.06;81.16;100086.20;1766803;81;21709;-60
2021/04/20 03:51:47;;;;;;;27.45;19.32;;;;;;;6.13;81.23;100082.37;1751376;81;21406;-60
2021/04/20 03:54:52;;;;;;;26.65;17.95;;;;;;;6.19;81.11;100074.45;1767211;81;21283;-59
2021/04/20 03:57:59;;;;;;;26.60;19.40;;;;;;;6.23;81.05;100078.58;1767260;81;21192;-59
2021/04/20 04:01:10;;;;;;;23.42;18.02;;;;;;;6.30;81.04;100078.78;1767157;81;21251;-59
2021/04/20 04:04:20;;;;;;;26.87;18.82;;;;;;;6.39;81.20;100078.70;1767504;81;21216;-61
2021/04/20 04:07:26;;;;;;;24.23;17.85;;;;;;;6.55;81.24;100088.89;1761259;81;21231;-61
2021/04/20 04:10:32;;;;;;;27.90;19.75;;;;;;;6.67;80.92;100086.25;1767445;81;21216;-60
2021/04/20 04:13:39;;;;;;;28.52;20.02;;;;;;;6.68;80.57;100071.63;1767274;81;21712;-60
2021/04/20 04:16:42;;;;;;;25.23;18.77;;;;;;;6.75;80.53;100073.58;1767326;81;21188;-59
2021/04/20 04:19:52;;;;;;;29.10;20.17;;;;;;;6.80;80.32;100069.84;1767129;81;21201;-59
2021/04/20 04:23:13;;;;;;;29.30;20.25;;;;;;;6.90;80.27;100066.52;1767333;81;21196;-60
2021/04/20 04:26:22;;;;;;;27.52;19.87;;;;;;;7.01;80.06;100068.97;1767349;81;21267;-60
2021/04/20 04:29:28;;;;;;;27.42;18.42;;;;;;;7.07;79.75;100060.69;1767318;81;21251;-60
2021/04/20 04:32:34;;;;;;;26.80;19.23;;;;;;;7.16;79.70;100061.07;1767458;81;21382;-59
2021/04/20 04:35:43;;;;;;;27.37;19.55;;;;;;;7.19;79.49;100058.88;1767455;81;21386;-59
2021/04/20 04:38:49;;;;;;;23.50;17.77;;;;;;;7.27;79.52;100061.64;1767326;81;21223;-59
2021/04/20 04:41:55;;;;;;;27.50;20.10;;;;;;;7.41;79.55;100061.52;1767290;81;21252;-59
2021/04/20 04:45:04;;;;;;;25.20;19.73;;;;;;;7.49;79.16;100049.30;1767390;81;21335;-59
2021/04/20 04:48:10;;;;;;;27.27;20.02;;;;;;;7.57;79.12;100047.48;1760062;78;21209;-60
2021/04/20 04:51:15;;;;;;;29.80;18.77;;;;;;;7.69;78.91;100044.45;1740092;81;21413;-60
2021/04/20 04:54:20;;;;;;;27.35;19.48;;;;;;;7.82;78.79;100034.77;1755474;81;21780;-60
2021/04/20 04:57:26;;;;;;;27.87;19.70;;;;;;;7.96;78.53;100026.47;1755071;81;21251;-59
2021/04/20 05:00:34;;;;;;;27.90;20.85;;;;;;;8.09;78.30;100017.26;1755723;81;21207;-60
2021/04/20 05:03:40;;;;;;;28.80;19.60;;;;;;;8.17;77.86;100017.27;1742221;81;21233;-60
2021/04/20 05:06:53;;;;;;;27.85;19.07;;;;;;;8.28;77.83;100016.96;1725436;83;21394;-60
2021/04/20 05:09:59;;;;;;;27.07;18.92;;;;;;;8.42;77.69;100017.14;1725227;83;21383;-60
2021/04/20 05:13:06;;;;;;;23.95;17.77;;;;;;;8.57;77.29;100011.85;1725259;83;21410;-61
2021/04/20 05:16:16;;;;;;;28.15;21.05;;;;;;;8.67;77.00;100005.17;1709761;83;21213;-59
2021/04/20 05:19:23;;;;;;;30.95;20.20;;;;;;;8.64;76.35;100000.59;1725317;83;21217;-59
2021/04/20 05:22:30;;;;;;;27.13;20.43;;;;;;;8.62;76.64;99995.82;1725615;83;21205;-58
2021/04/20 05:25:35;;;;;;;26.12;19.02;;;;;;;8.70;76.71;99993.08;1725243;83;21217;-57
2021/04/20 05:28:40;;;;;;;27.60;22.17;;;;;;;8.79;76.65;99992.89;1725433;83;21845;-58
2021/04/20 05:31:45;;;;;;;26.90;19.82;;;;;;;8.83;76.60;99987.41;1745800;81;21861;-57
2021/04/20 05:34:57;;;;;;;28.07;21.37;;;;;;;8.93;76.73;99991.30;1744328;81;21199;-58
2021/04/20 05:38:05;;;;;;;23.52;17.70;;;;;;;8.98;76.79;99977.48;1744349;81;21332;-59
2021/04/20 05:41:11;;;;;;;33.70;20.72;;;;;;;9.11;76.87;99982.39;1739950;81;21265;-57
2021/04/20 05:44:19;;;;;;;27.20;21.25;;;;;;;9.17;76.76;99979.45;1755092;81;21217;-57
2021/04/20 05:47:24;;;;;;;26.95;19.87;;;;;;;9.30;76.95;99972.91;1754270;81;21570;-58
2021/04/20 05:50:35;;;;;;;29.23;22.22;;;;;;;9.45;76.68;99971.98;1793083;79;21765;-56
2021/04/20 05:53:42;;;;;;;27.80;20.00;;;;;;;9.57;76.67;99973.30;1738794;81;21910;-57
2021/04/20 05:56:47;;;;;;;28.77;22.25;;;;;;;9.80;76.62;99971.43;1731243;82;21216;-57
2021/04/20 05:59:53;;;;;;;29.07;21.00;;;;;;;9.99;76.22;99974.23;1777391;79;21371;-57
2021/04/20 06:03:07;;;;;;;29.35;22.22;;;;;;;10.10;75.86;99970.56;1771800;79;21232;-56
2021/04/20 06:06:13;;;;;;;25.92;21.07;;;;;;;10.21;75.82;99970.13;1774730;79;21805;-56
2021/04/20 06:09:20;;;;;;;25.97;21.42;;;;;;;10.41;75.79;99965.87;1796211;79;21935;-56
2021/04/20 06:12:24;;;;;;;31.33;22.73;;;;;;;10.61;75.39;99970.28;1794237;79;21307;-56
2021/04/20 06:15:32;;;;;;;31.33;23.87;;;;;;;10.77;75.07;99966.52;1803658;79;21236;-56
2021/04/20 06:18:37;;;;;;;29.85;22.98;;;;;;;10.95;74.78;99960.17;1800067;79;21181;-56
2021/04/20 06:21:46;;;;;;;30.40;22.87;;;;;;;11.15;74.28;99966.26;1800244;79;21705;-56
2021/04/20 06:24:53;;;;;;;28.85;23.20;;;;;;;11.32;73.72;99959.53;1795676;79;21723;-56
2021/04/20 06:27:58;;;;;;;49.63;26.42;;;;;;;11.56;73.46;99962.49;1770744;80;21738;-57
2021/04/20 06:31:07;;;;;;;31.10;24.02;;;;;;;11.81;72.81;99955.65;1771118;80;21212;-57
2021/04/20 06:34:13;;;;;;;28.23;22.70;;;;;;;12.02;72.23;99961.98;1790001;79;21398;-57
2021/04/20 06:37:18;;;;;;;32.17;22.95;;;;;;;12.19;71.57;99963.10;1787205;79;21358;-57
2021/04/20 06:40:44;;;;;;;26.97;21.52;;;;;;;12.35;71.09;99966.44;1788404;80;21217;-58
2021/04/20 06:44:24;;;;;;;26.40;21.30;;;;;;;12.48;70.39;99958.30;1785033;79;21709;-58
2021/04/20 06:47:33;;;;;;;26.15;21.75;;;;;;;12.57;69.85;99958.50;1770997;80;21375;-57
2021/04/20 06:50:40;;;;;;;25.80;21.45;;;;;;;12.62;69.05;99949.66;1772050;80;21260;-57
2021/04/20 06:54:02;;;;;;;26.68;20.72;;;;;;;12.64;69.12;99955.78;1779420;79;21725;-56
2021/04/20 06:57:18;;;;;;;31.20;21.95;;;;;;;12.69;68.79;99940.42;1803232;79;21243;-57
2021/04/20 07:00:33;;;;;;;34.75;23.52;;;;;;;12.74;68.41;99943.93;1803692;79;21222;-57
2021/04/20 07:04:12;;;;;;;23.83;20.65;;;;;;;12.74;68.42;99943.41;1799799;79;21275;-57
2021/04/20 07:07:44;;;;;;;29.00;20.57;;;;;;;12.78;67.88;99937.83;1772409;80;21176;-57
2021/04/20 07:10:49;;;;;;;25.48;20.30;;;;;;;12.82;67.90;99935.02;1772126;81;21204;-56
2021/04/20 07:13:59;;;;;;;26.73;21.17;;;;;;;12.88;67.71;99931.46;1786067;79;21347;-57
2021/04/20 07:17:27;;;;;;;30.55;19.82;;;;;;;12.97;67.53;99923.92;1770710;81;21422;-60
2021/04/20 07:21:00;;;;;;;28.73;20.45;;;;;;;13.06;67.45;99923.59;1783552;79;21367;-57
2021/04/20 07:24:25;;;;;;;30.00;21.05;;;;;;;13.22;67.29;99914.97;1784008;79;21332;-56
2021/04/20 07:28:04;;;;;;;21.85;18.90;;;;;;;13.36;66.92;99914.02;1770052;80;21240;-56
2021/04/20 07:31:16;;;;;;;21.35;18.57;;;;;;;13.54;66.41;99901.89;1770818;80;21815;-57
2021/04/20 07:34:44;;;;;;;22.48;18.90;;;;;;;13.67;65.97;99902.46;1735149;82;21276;-58
2021/04/20 07:38:08;;;;;;;21.05;18.60;;;;;;;13.76;65.12;99905.88;1771268;80;21307;-57
2021/04/20 07:41:47;;;;;;;20.92;18.67;;;;;;;13.72;64.95;99897.70;1768476;80;21279;-57
2021/04/20 07:44:58;;;;;;;22.48;18.35;;;;;;;13.76;64.99;99893.50;1735199;82;21274;-58
2021/04/20 07:48:43;;;;;;;19.30;16.62;;;;;;;13.81;64.30;99890.43;1790732;79;21235;-59
2021/04/20 07:52:14;;;;;;;20.97;16.93;;;;;;;13.77;63.95;99887.79;1773686;79;21249;-59
2021/04/20 07:55:50;;;;;;;19.17;17.02;;;;;;;13.77;64.14;99884.19;1786862;79;21637;-59
2021/04/20 07:58:57;;;;;;;22.05;18.40;;;;;;;13.77;63.75;99881.44;1747388;81;21580;-57
2021/04/20 08:02:05;;;;;;;23.60;18.32;;;;;;;13.65;63.86;99876.23;1765861;81;21236;-57
2021/04/20 08:05:22;;;;;;;22.05;18.02;;;;;;;13.69;64.28;99876.12;1764573;81;21232;-58
2021/04/20 08:08:55;;;;;;;26.70;18.75;;;;;;;13.84;64.73;99870.78;1745230;81;21334;-59
2021/04/20 08:12:09;;;;;;;22.50;18.35;;;;;;;13.96;64.08;99870.98;1750413;81;21892;-57
2021/04/20 08:15:20;;;;;;;23.90;18.62;;;;;;;14.01;64.18;99867.94;1752859;82;21375;-57
2021/04/20 08:18:45;;;;;;;33.20;19.82;;;;;;;14.20;63.75;99859.36;1761099;81;21348;-56
2021/04/20 08:21:53;;;;;;;21.02;18.02;;;;;;;14.40;63.69;99851.96;1775309;79;21321;-58
2021/04/20 08:25:19;;;;;;;19.05;16.45;;;;;;;14.65;63.12;99859.34;1776833;79;21185;-58
2021/04/20 08:28:32;;;;;;;22.50;17.37;;;;;;;14.88;62.51;99850.61;1783403;79;21184;-57
2021/04/20 08:32:03;;;;;;;22.17;18.07;;;;;;;15.04;61.49;99848.77;1803534;79;21924;-58
2021/04/20 08:35:16;;;;;;;21.30;18.65;;;;;;;15.24;60.97;99840.42;1778317;79;21451;-57
2021/04/20 08:38:53;;;;;;;26.57;17.77;;;;;;;15.38;60.09;99830.50;1777588;79;21872;-57
2021/04/20 08:42:14;;;;;;;26.42;17.98;;;;;;;15.62;59.67;99828.34;1762264;79;21370;-56
2021/04/20 08:45:36;;;;;;;21.70;17.53;;;;;;;15.79;58.58;99821.77;1788283;79;21322;-56
2021/04/20 08:49:13;;;;;;;21.40;17.45;;;;;;;16.06;58.26;99817.75;1768197;81;21244;-60
2021/04/20 08:52:46;;;;;;;23.95;17.95;;;;;;;16.18;57.82;99812.65;1768219;79;21419;-58
2021/04/20 08:56:21;;;;;;;21.50;15.18;;;;;;;16.34;57.60;99813.46;1750097;81;21201;-57
2021/04/20 08:59:54;;;;;;;21.25;15.18;;;;;;;16.45;55.88;99813.27;1765930;81;21769;-56
2021/04/20 09:03:29;;;;;;;21.00;15.03;;;;;;;16.27;55.15;99807.66;1764975;80;21256;-57
2021/04/20 09:06:54;;;;;;;19.80;15.28;;;;;;;16.25;54.93;99803.75;1765482;81;21189;-59
2021/04/20 09:10:00;;;;;;;24.37;17.80;;;;;;;16.24;55.11;99801.22;1758744;81;21248;-58
2021/04/20 09:13:27;;;;;;;17.05;14.47;;;;;;;16.17;54.57;99803.21;1729203;83;21200;-59
2021/04/20 09:16:49;;;;;;;17.98;13.88;;;;;;;16.04;55.31;99804.17;1729557;83;21237;-59
2021/04/20 09:20:06;;;;;;;17.23;13.98;;;;;;;15.92;55.84;99799.05;1729179;83;21930;-58
2021/04/20 09:23:20;;;;;;;17.17;14.95;;;;;;;15.73;56.37;99806.94;1729680;83;21452;-58
2021/04/20 09:27:03;;;;;;;20.00;17.23;;;;;;;15.47;57.61;99798.85;1727404;81;21217;-59
2021/04/20 09:30:21;;;;;;;22.25;17.32;;;;;;;15.32;59.18;99804.33;1758853;81;21356;-59
2021/04/20 09:33:42;;;;;;;22.85;17.55;;;;;;;15.11;60.64;99790.84;1759267;81;22145;-58
2021/04/20 09:36:49;;;;;;;20.70;18.17;;;;;;;14.94;61.54;99791.34;1759557;81;21829;-61
2021/04/20 09:39:58;;;;;;;21.95;17.62;;;;;;;14.85;62.06;99784.39;1759936;81;21344;-59
2021/04/20 09:43:12;;;;;;;21.57;18.62;;;;;;;14.94;62.58;99784.45;1759526;81;21484;-60
2021/04/20 09:46:28;;;;;;;20.12;18.00;;;;;;;15.13;62.82;99773.01;1759830;81;21345;-59
2021/04/20 09:49:55;;;;;;;20.43;17.92;;;;;;;15.33;62.34;99773.77;1732350;81;21869;-59
2021/04/20 09:53:33;;;;;;;21.07;17.20;;;;;;;15.43;61.40;99766.42;1773386;79;21347;-59
2021/04/20 09:56:56;;;;;;;18.65;15.85;;;;;;;15.43;59.45;99758.97;1798909;79;21386;-59
2021/04/20 10:00:19;;;;;;;18.98;17.02;;;;;;;15.43;60.31;99756.20;1758643;81;21381;-59
2021/04/20 10:04:01;;;;;;;20.85;16.70;;;;;;;15.63;59.91;99751.42;1752521;81;21207;-57
2021/04/20 10:07:40;;;;;;;18.60;16.57;;;;;;;15.81;59.48;99745.12;1772454;81;21413;-57
2021/04/20 10:10:55;;;;;;;18.73;16.20;;;;;;;16.00;59.59;99732.52;1771998;81;21220;-60
2021/04/20 10:14:44;;;;;;;19.57;16.27;;;;;;;16.28;59.30;99723.75;1777647;79;21241;-59
2021/04/20 10:18:07;;;;;;;17.50;15.43;;;;;;;16.49;58.81;99728.02;1777377;79;21414;-60
2021/04/20 10:21:31;;;;;;;;;;;;;;;16.67;58.30;99724.70;1774564;79;21722;-59
2021/04/20 10:24:38;;;;;;;21.37;16.85;;;;;;;16.74;57.73;99723.25;1772211;81;20223;-58
2021/04/20 10:27:45;;;;;;;21.73;17.32;;;;;;;16.72;57.44;99712.95;1790460;79;21872;-58
2021/04/20 10:30:52;;;;;;;21.85;17.52;;;;;;;16.73;57.84;99704.42;1785186;79;21193;-58
2021/04/20 10:33:58;;;;;;;19.35;15.03;;;;;;;16.72;57.03;99695.84;1794601;79;21671;-59
2021/04/20 10:37:05;;;;;;;19.37;16.25;;;;;;;16.75;56.97;99697.28;1797520;80;21193;-59
2021/04/20 10:40:17;;;;;;;20.45;16.50;;;;;;;16.66;56.37;99694.54;1792646;78;21195;-59
2021/04/20 10:43:26;;;;;;;23.67;17.60;;;;;;;16.50;56.45;99683.58;1783812;79;21194;-60
2021/04/20 10:46:33;;;;;;;19.62;17.27;;;;;;;16.36;56.51;99678.70;1794836;79;21362;-58
2021/04/20 10:49:39;;;;;;;28.27;17.82;;;;;;;16.39;56.54;99682.38;1801823;79;21373;-59
2021/04/20 10:52:46;;;;;;;22.67;16.45;;;;;;;16.52;56.65;99670.91;1789823;79;21338;-56
2021/04/20 10:56:03;;;;;;;19.90;15.83;;;;;;;16.53;55.88;99669.30;1767287;79;21208;-57
2021/04/20 10:59:15;;;;;;;17.02;15.23;;;;;;;16.65;55.96;99666.05;1774748;79;21209;-56
2021/04/20 11:02:28;;;;;;;17.17;15.30;;;;;;;16.68;54.67;99667.52;1801218;79;21751;-56
2021/04/20 11:05:32;;;;;;;17.12;14.73;;;;;;;16.74;54.07;99661.91;1787069;80;21220;-55
2021/04/20 11:08:49;;;;;;;18.77;14.53;;;;;;;16.66;53.28;99647.55;1798617;79;21577;-55
2021/04/20 11:11:56;;;;;;;17.90;14.55;;;;;;;16.53;53.83;99646.34;1801107;79;21865;-55
2021/04/20 11:15:03;;;;;;;17.48;14.98;;;;;;;16.56;52.87;99640.34;1786563;79;21354;-55
2021/04/20 11:18:13;;;;;;;19.70;15.18;;;;;;;16.60;53.28;99644.34;1769869;79;21213;-56
2021/04/20 11:21:33;;;;;;;15.68;13.30;;;;;;;16.69;53.41;99637.41;1793547;79;21360;-56
2021/04/20 11:24:41;;;;;;;18.90;15.95;;;;;;;16.82;53.33;99636.71;1769596;79;21252;-55
2021/04/20 11:27:47;;;;;;;20.92;14.53;;;;;;;16.69;52.85;99629.13;1771669;81;21927;-56
2021/04/20 11:31:02;;;;;;;16.75;14.68;;;;;;;16.58;53.24;99616.09;1762933;79;21947;-56
2021/04/20 11:34:23;;;;;;;17.12;14.83;;;;;;;16.56;53.34;99616.86;1793498;79;21366;-57
2021/04/20 11:37:32;;;;;;;17.98;16.07;;;;;;;16.39;53.87;99609.17;1803324;79;21331;-56
2021/04/20 11:40:46;;;;;;;17.30;13.20;;;;;;;16.28;54.00;99611.33;1802951;79;21366;-57
2021/04/20 11:44:05;;;;;;;17.15;12.75;;;;;;;16.15;54.20;99601.84;1799910;79;21867;-56
2021/04/20 11:47:12;;;;;;;16.37;13.70;;;;;;;16.10;53.33;99596.70;1790128;79;21335;-56
2021/04/20 11:50:22;;;;;;;17.62;13.38;;;;;;;16.15;53.64;99598.23;1757842;81;21189;-56
2021/04/20 11:53:28;;;;;;;15.85;13.03;;;;;;;16.17;54.28;99588.63;1768374;79;22207;-57
2021/04/20 11:56:36;;;;;;;15.28;13.72;;;;;;;16.28;54.66;99584.27;1793845;79;21397;-57
2021/04/20 11:59:42;;;;;;;19.77;14.98;;;;;;;16.37;54.38;99578.72;1803417;79;21477;-57
2021/04/20 12:02:49;;;;;;;16.85;14.23;;;;;;;16.50;54.21;99577.73;1803787;79;21602;-57
2021/04/20 12:05:55;;;;;;;17.30;13.65;;;;;;;16.70;54.07;99569.46;1803273;79;21386;-57
2021/04/20 12:09:04;;;;;;;14.68;12.53;;;;;;;16.86;53.60;99572.09;1797666;79;21212;-57
2021/04/20 12:12:12;;;;;;;14.18;12.63;;;;;;;17.07;52.27;99568.27;1802309;79;21227;-57
2021/04/20 12:15:22;;;;;;;16.02;12.93;;;;;;;17.12;51.64;99567.55;1802393;79;21339;-57
2021/04/20 12:18:27;;;;;;;12.63;11.05;;;;;;;17.19;51.15;99571.02;1803273;79;21322;-57
2021/04/20 12:21:38;;;;;;;10.30;9.23;;;;;;;17.20;50.68;99564.43;1771774;81;21421;-56
2021/04/20 12:24:43;;;;;;;10.93;9.85;;;;;;;17.16;50.26;99553.52;1775640;79;21591;-57
2021/04/20 12:27:50;;;;;;;11.05;9.65;;;;;;;17.04;49.06;99554.06;1726676;81;21337;-56
2021/04/20 12:30:59;;;;;;;10.63;8.43;;;;;;;16.92;49.76;99555.97;1777991;79;21225;-57
2021/04/20 12:34:04;;;;;;;13.93;11.05;;;;;;;16.86;50.65;99556.89;1778017;79;21224;-57
2021/04/20 12:37:12;;;;;;;19.42;12.60;;;;;;;16.68;50.93;99544.53;1786726;79;21414;-57
2021/04/20 12:40:22;;;;;;;20.75;11.68;;;;;;;16.43;51.97;99552.39;1802455;79;21860;-57
2021/04/20 12:43:27;;;;;;;14.25;12.23;;;;;;;16.26;52.89;99538.93;1803149;79;21817;-57
2021/04/20 12:46:34;;;;;;;13.48;11.63;;;;;;;16.24;53.30;99547.12;1793119;79;21390;-58
2021/04/20 12:49:42;;;;;;;13.45;11.28;;;;;;;16.20;53.40;99542.63;1771818;81;21267;-57
2021/04/20 12:52:50;;;;;;;13.10;9.58;;;;;;;16.15;53.39;99538.34;1805646;79;21717;-56
2021/04/20 12:55:59;;;;;;;10.60;9.48;;;;;;;16.14;52.01;99537.19;1801370;79;21344;-57
2021/04/20 12:59:06;;;;;;;11.28;10.05;;;;;;;15.97;51.59;99531.44;1777954;79;21927;-56
2021/04/20 13:02:12;;;;;;;11.97;10.53;;;;;;;15.84;52.12;99532.97;1770702;81;21327;-56
2021/04/20 13:05:20;;;;;;;10.50;9.40;;;;;;;15.70;52.28;99532.82;1773579;79;21418;-56
2021/04/20 13:08:27;;;;;;;17.62;10.43;;;;;;;15.56;53.36;99532.66;1748185;80;21360;-57
2021/04/20 13:11:40;;;;;;;14.73;12.70;;;;;;;15.44;54.91;99527.60;1774332;80;21911;-56
2021/04/20 13:14:47;;;;;;;16.73;12.88;;;;;;;15.31;56.86;99531.83;1777367;79;21773;-56
2021/04/20 13:17:53;;;;;;;16.52;13.60;;;;;;;15.24;58.18;99530.22;1783119;79;21959;-56
2021/04/20 13:21:08;;;;;;;19.70;14.30;;;;;;;15.14;58.94;99522.98;1777280;79;21375;-56
2021/04/20 13:24:14;;;;;;;19.40;16.27;;;;;;;15.11;59.83;99534.47;1780183;79;21335;-57
2021/04/20 13:27:21;;;;;;;19.30;16.93;;;;;;;15.08;60.25;99521.95;1777736;79;21371;-57
2021/04/20 13:30:32;;;;;;;18.45;16.15;;;;;;;14.96;60.99;99525.16;1781569;79;21371;-57
2021/04/20 13:33:40;;;;;;;18.62;16.48;;;;;;;14.85;61.45;99529.48;1798738;80;21868;-57
2021/04/20 13:36:54;;;;;;;21.10;17.65;;;;;;;14.68;62.34;99522.81;1785831;79;21169;-56
2021/04/20 13:40:02;;;;;;;22.27;17.80;;;;;;;14.55;63.93;99526.20;1787624;79;21327;-57
2021/04/20 13:43:10;;;;;;;22.82;19.27;;;;;;;14.34;64.96;99523.79;1790205;79;21320;-56
2021/04/20 13:46:17;;;;;;;23.12;19.70;;;;;;;14.15;66.07;99532.97;1774938;79;21288;-59
2021/04/20 13:49:24;;;;;;;23.47;19.80;;;;;;;14.01;66.86;99532.72;1772988;80;21339;-56
2021/04/20 13:52:36;;;;;;;24.07;20.12;;;;;;;13.84;67.70;99524.66;1776216;79;21355;-56
2021/04/20 13:55:44;;;;;;;27.07;22.02;;;;;;;13.69;68.45;99529.56;1792997;79;21252;-57
2021/04/20 13:59:13;;;;;;;24.92;21.37;;;;;;;13.57;69.12;99543.67;1794610;79;21347;-58
2021/04/20 14:02:20;;;;;;;26.48;21.27;;;;;;;13.44;69.94;99525.30;1797750;79;21603;-58
2021/04/20 14:05:25;;;;;;;26.70;23.20;;;;;;;13.35;70.78;99538.42;1771207;80;21362;-60
2021/04/20 14:08:37;;;;;;;28.57;22.93;;;;;;;13.32;71.60;99533.88;1771399;81;21197;-60
2021/04/20 14:11:55;;;;;;;30.77;22.77;;;;;;;13.33;72.48;99534.21;1772050;81;21375;-60
2021/04/20 14:15:16;;;;;;;27.95;24.72;;;;;;;13.36;73.17;99528.28;1775755;79;21421;-60
2021/04/20 14:18:22;;;;;;;31.25;26.68;;;;;;;13.39;73.89;99532.83;1744283;81;21239;-60
2021/04/20 14:21:28;;;;;;;29.40;24.92;;;;;;;13.39;74.32;99536.95;1771785;81;21891;-62
2021/04/20 14:24:35;;;;;;;31.40;25.00;;;;;;;13.40;74.74;99528.16;1771494;80;21208;-59
2021/04/20 14:27:42;;;;;;;28.65;23.47;;;;;;;13.36;75.02;99535.16;1771888;81;21195;-59
2021/04/20 14:30:47;;;;;;;30.60;24.60;;;;;;;13.32;75.44;99533.88;1796565;79;21977;-59
2021/04/20 14:33:54;;;;;;;26.20;22.32;;;;;;;13.26;75.39;99531.47;1803918;79;21914;-61
2021/04/20 14:37:04;;;;;;;23.20;20.65;;;;;;;13.21;75.35;99529.03;1803472;79;21353;-59
2021/04/20 14:40:11;;;;;;;39.60;27.80;;;;;;;13.16;75.17;99528.30;1803881;79;21383;-61
2021/04/20 14:43:18;;;;;;;117.87;53.98;;;;;;;13.10;75.20;99527.78;1802170;79;21323;-60